sensor_id;sensor_type;location;lat;lon;timestamp;P1;durP1;ratioP1;P2;durP2;ratioP2
69030;SDS011;56083;48.774;8.942;2023-04-09T00:02:15;24.15;;;16.55;;
69030;SDS011;56083;48.774;8.942;2023-04-09T00:04:41;23.88;;;16.98;;
69030;SDS011;56083;48.774;8.942;2023-04-09T00:07:06;25.48;;;16.95;;
69030;SDS011;56083;48.774;8.942;2023-04-09T00:09:32;23.63;;;17.75;;
69030;SDS011;56083;48.774;8.942;2023-04-09T00:11:57;27.63;;;18.10;;
69030;SDS011;56083;48.774;8.942;2023-04-09T00:14:23;27.70;;;18.63;;
69030;SDS011;56083;48.774;8.942;2023-04-09T00:16:49;25.10;;;18.23;;
69030;SDS011;56083;48.774;8.942;2023-04-09T00:19:15;24.83;;;16.40;;
69030;SDS011;56083;48.774;8.942;2023-04-09T00:21:40;22.85;;;16.13;;
69030;SDS011;56083;48.774;8.942;2023-04-09T00:24:06;22.75;;;15.77;;
69030;SDS011;56083;48.774;8.942;2023-04-09T00:26:32;23.92;;;15.57;;
69030;SDS011;56083;48.774;8.942;2023-04-09T00:28:58;23.80;;;16.13;;
69030;SDS011;56083;48.774;8.942;2023-04-09T00:31:23;22.60;;;15.65;;
69030;SDS011;56083;48.774;8.942;2023-04-09T00:33:49;23.98;;;16.88;;
69030;SDS011;56083;48.774;8.942;2023-04-09T00:36:15;24.80;;;16.27;;
69030;SDS011;56083;48.774;8.942;2023-04-09T00:38:40;26.10;;;16.33;;
69030;SDS011;56083;48.774;8.942;2023-04-09T00:41:06;22.83;;;16.13;;
69030;SDS011;56083;48.774;8.942;2023-04-09T00:43:32;24.95;;;16.33;;
69030;SDS011;56083;48.774;8.942;2023-04-09T00:45:58;26.42;;;16.67;;
69030;SDS011;56083;48.774;8.942;2023-04-09T00:48:24;23.80;;;16.25;;
69030;SDS011;56083;48.774;8.942;2023-04-09T00:50:50;24.98;;;17.63;;
69030;SDS011;56083;48.774;8.942;2023-04-09T00:53:16;25.42;;;17.35;;
69030;SDS011;56083;48.774;8.942;2023-04-09T00:55:42;24.38;;;16.75;;
69030;SDS011;56083;48.774;8.942;2023-04-09T00:58:09;26.27;;;17.45;;
69030;SDS011;56083;48.774;8.942;2023-04-09T01:00:35;25.92;;;16.52;;
69030;SDS011;56083;48.774;8.942;2023-04-09T01:03:01;27.88;;;16.85;;
69030;SDS011;56083;48.774;8.942;2023-04-09T01:08:29;21.05;;;14.85;;
69030;SDS011;56083;48.774;8.942;2023-04-09T01:11:34;22.67;;;14.93;;
69030;SDS011;56083;48.774;8.942;2023-04-09T01:14:17;21.27;;;15.18;;
69030;SDS011;56083;48.774;8.942;2023-04-09T01:16:50;24.70;;;16.42;;
69030;SDS011;56083;48.774;8.942;2023-04-09T01:19:43;22.95;;;15.30;;
69030;SDS011;56083;48.774;8.942;2023-04-09T01:25:18;20.35;;;14.20;;
69030;SDS011;56083;48.774;8.942;2023-04-09T01:28:17;19.10;;;13.18;;
69030;SDS011;56083;48.774;8.942;2023-04-09T01:30:50;20.67;;;14.15;;
69030;SDS011;56083;48.774;8.942;2023-04-09T01:33:21;21.00;;;13.70;;
69030;SDS011;56083;48.774;8.942;2023-04-09T01:35:49;20.33;;;14.90;;
69030;SDS011;56083;48.774;8.942;2023-04-09T01:38:17;19.60;;;14.10;;
69030;SDS011;56083;48.774;8.942;2023-04-09T01:40:45;19.38;;;13.43;;
69030;SDS011;56083;48.774;8.942;2023-04-09T01:43:11;20.05;;;14.40;;
69030;SDS011;56083;48.774;8.942;2023-04-09T01:45:39;22.35;;;15.00;;
69030;SDS011;56083;48.774;8.942;2023-04-09T01:48:06;22.92;;;15.25;;
69030;SDS011;56083;48.774;8.942;2023-04-09T01:50:32;21.33;;;15.07;;
69030;SDS011;56083;48.774;8.942;2023-04-09T01:52:58;20.98;;;13.73;;
69030;SDS011;56083;48.774;8.942;2023-04-09T01:55:25;20.67;;;13.85;;
69030;SDS011;56083;48.774;8.942;2023-04-09T01:57:51;19.83;;;13.98;;
69030;SDS011;56083;48.774;8.942;2023-04-09T02:00:17;22.13;;;14.73;;
69030;SDS011;56083;48.774;8.942;2023-04-09T02:02:50;24.00;;;15.20;;
69030;SDS011;56083;48.774;8.942;2023-04-09T02:05:23;22.45;;;15.80;;
69030;SDS011;56083;48.774;8.942;2023-04-09T02:07:53;21.00;;;14.77;;
69030;SDS011;56083;48.774;8.942;2023-04-09T02:10:22;28.73;;;14.77;;
69030;SDS011;56083;48.774;8.942;2023-04-09T02:12:50;22.50;;;13.85;;
69030;SDS011;56083;48.774;8.942;2023-04-09T02:15:18;19.42;;;14.60;;
69030;SDS011;56083;48.774;8.942;2023-04-09T02:17:44;20.23;;;14.77;;
69030;SDS011;56083;48.774;8.942;2023-04-09T02:20:10;22.15;;;14.70;;
69030;SDS011;56083;48.774;8.942;2023-04-09T02:22:40;20.35;;;13.98;;
69030;SDS011;56083;48.774;8.942;2023-04-09T02:25:05;19.95;;;14.23;;
69030;SDS011;56083;48.774;8.942;2023-04-09T02:27:31;21.40;;;15.52;;
69030;SDS011;56083;48.774;8.942;2023-04-09T02:29:57;24.30;;;16.27;;
69030;SDS011;56083;48.774;8.942;2023-04-09T02:32:22;28.00;;;17.08;;
69030;SDS011;56083;48.774;8.942;2023-04-09T02:34:48;24.65;;;16.63;;
69030;SDS011;56083;48.774;8.942;2023-04-09T02:37:13;22.90;;;15.75;;
69030;SDS011;56083;48.774;8.942;2023-04-09T02:39:39;22.83;;;15.68;;
69030;SDS011;56083;48.774;8.942;2023-04-09T02:42:04;24.48;;;16.65;;
69030;SDS011;56083;48.774;8.942;2023-04-09T02:44:31;25.88;;;16.73;;
69030;SDS011;56083;48.774;8.942;2023-04-09T02:46:57;23.17;;;16.55;;
69030;SDS011;56083;48.774;8.942;2023-04-09T02:49:23;25.75;;;16.42;;
69030;SDS011;56083;48.774;8.942;2023-04-09T02:51:48;24.48;;;17.38;;
69030;SDS011;56083;48.774;8.942;2023-04-09T02:54:14;25.40;;;17.20;;
69030;SDS011;56083;48.774;8.942;2023-04-09T02:56:40;24.35;;;17.23;;
69030;SDS011;56083;48.774;8.942;2023-04-09T02:59:05;31.50;;;18.35;;
69030;SDS011;56083;48.774;8.942;2023-04-09T03:01:31;27.20;;;18.35;;
69030;SDS011;56083;48.774;8.942;2023-04-09T03:03:56;25.02;;;17.60;;
69030;SDS011;56083;48.774;8.942;2023-04-09T03:06:23;25.02;;;18.17;;
69030;SDS011;56083;48.774;8.942;2023-04-09T03:08:50;26.23;;;17.63;;
69030;SDS011;56083;48.774;8.942;2023-04-09T03:11:16;28.08;;;18.33;;
69030;SDS011;56083;48.774;8.942;2023-04-09T03:13:41;26.35;;;18.48;;
69030;SDS011;56083;48.774;8.942;2023-04-09T03:16:07;25.85;;;19.25;;
69030;SDS011;56083;48.774;8.942;2023-04-09T03:18:34;33.72;;;19.17;;
69030;SDS011;56083;48.774;8.942;2023-04-09T03:21:07;25.65;;;18.70;;
69030;SDS011;56083;48.774;8.942;2023-04-09T03:23:33;30.73;;;20.15;;
69030;SDS011;56083;48.774;8.942;2023-04-09T03:26:02;29.23;;;19.83;;
69030;SDS011;56083;48.774;8.942;2023-04-09T03:28:30;27.98;;;19.55;;
69030;SDS011;56083;48.774;8.942;2023-04-09T03:30:55;31.15;;;21.02;;
69030;SDS011;56083;48.774;8.942;2023-04-09T03:33:22;34.45;;;22.02;;
69030;SDS011;56083;48.774;8.942;2023-04-09T03:35:48;30.27;;;20.55;;
69030;SDS011;56083;48.774;8.942;2023-04-09T03:38:14;35.17;;;22.00;;
69030;SDS011;56083;48.774;8.942;2023-04-09T03:40:40;31.17;;;21.75;;
69030;SDS011;56083;48.774;8.942;2023-04-09T03:43:06;34.28;;;22.15;;
69030;SDS011;56083;48.774;8.942;2023-04-09T03:45:32;32.78;;;22.58;;
69030;SDS011;56083;48.774;8.942;2023-04-09T03:47:58;32.67;;;23.17;;
69030;SDS011;56083;48.774;8.942;2023-04-09T03:50:23;36.70;;;22.77;;
69030;SDS011;56083;48.774;8.942;2023-04-09T03:52:49;34.20;;;22.90;;
69030;SDS011;56083;48.774;8.942;2023-04-09T03:55:15;37.38;;;24.38;;
69030;SDS011;56083;48.774;8.942;2023-04-09T03:57:40;33.00;;;22.90;;
69030;SDS011;56083;48.774;8.942;2023-04-09T04:00:06;38.22;;;24.08;;
69030;SDS011;56083;48.774;8.942;2023-04-09T04:02:32;33.17;;;22.20;;
69030;SDS011;56083;48.774;8.942;2023-04-09T04:04:58;34.53;;;23.67;;
69030;SDS011;56083;48.774;8.942;2023-04-09T04:07:24;33.22;;;22.35;;
69030;SDS011;56083;48.774;8.942;2023-04-09T04:09:49;31.45;;;21.88;;
69030;SDS011;56083;48.774;8.942;2023-04-09T04:12:15;32.85;;;22.48;;
69030;SDS011;56083;48.774;8.942;2023-04-09T04:14:41;31.58;;;21.92;;
69030;SDS011;56083;48.774;8.942;2023-04-09T04:17:06;31.70;;;22.50;;
69030;SDS011;56083;48.774;8.942;2023-04-09T04:19:32;32.67;;;21.67;;
69030;SDS011;56083;48.774;8.942;2023-04-09T04:21:58;33.47;;;21.58;;
69030;SDS011;56083;48.774;8.942;2023-04-09T04:24:23;31.65;;;22.27;;
69030;SDS011;56083;48.774;8.942;2023-04-09T04:26:49;32.90;;;21.73;;
69030;SDS011;56083;48.774;8.942;2023-04-09T04:29:15;31.73;;;22.00;;
69030;SDS011;56083;48.774;8.942;2023-04-09T04:31:40;31.52;;;21.67;;
69030;SDS011;56083;48.774;8.942;2023-04-09T04:34:06;33.05;;;21.35;;
69030;SDS011;56083;48.774;8.942;2023-04-09T04:36:32;29.95;;;20.52;;
69030;SDS011;56083;48.774;8.942;2023-04-09T04:38:57;33.20;;;20.38;;
69030;SDS011;56083;48.774;8.942;2023-04-09T04:41:23;27.95;;;19.58;;
69030;SDS011;56083;48.774;8.942;2023-04-09T04:43:48;28.02;;;18.88;;
69030;SDS011;56083;48.774;8.942;2023-04-09T04:46:14;28.95;;;19.27;;
69030;SDS011;56083;48.774;8.942;2023-04-09T04:48:40;28.65;;;18.33;;
69030;SDS011;56083;48.774;8.942;2023-04-09T04:51:05;24.33;;;18.17;;
69030;SDS011;56083;48.774;8.942;2023-04-09T04:53:31;25.88;;;17.17;;
69030;SDS011;56083;48.774;8.942;2023-04-09T04:55:56;31.48;;;19.13;;
69030;SDS011;56083;48.774;8.942;2023-04-09T04:58:23;28.45;;;19.55;;
69030;SDS011;56083;48.774;8.942;2023-04-09T05:00:49;26.58;;;18.13;;
69030;SDS011;56083;48.774;8.942;2023-04-09T05:03:14;27.17;;;18.38;;
69030;SDS011;56083;48.774;8.942;2023-04-09T05:05:40;30.38;;;19.88;;
69030;SDS011;56083;48.774;8.942;2023-04-09T05:08:06;27.50;;;18.13;;
69030;SDS011;56083;48.774;8.942;2023-04-09T05:10:31;26.63;;;18.88;;
69030;SDS011;56083;48.774;8.942;2023-04-09T05:12:57;30.52;;;19.98;;
69030;SDS011;56083;48.774;8.942;2023-04-09T05:15:23;30.67;;;19.30;;
69030;SDS011;56083;48.774;8.942;2023-04-09T05:17:48;29.25;;;20.52;;
69030;SDS011;56083;48.774;8.942;2023-04-09T05:20:14;30.23;;;20.67;;
69030;SDS011;56083;48.774;8.942;2023-04-09T05:22:40;32.33;;;20.70;;
69030;SDS011;56083;48.774;8.942;2023-04-09T05:25:06;32.78;;;20.73;;
69030;SDS011;56083;48.774;8.942;2023-04-09T05:27:40;29.33;;;21.38;;
69030;SDS011;56083;48.774;8.942;2023-04-09T05:30:06;30.48;;;21.00;;
69030;SDS011;56083;48.774;8.942;2023-04-09T05:32:32;32.33;;;21.35;;
69030;SDS011;56083;48.774;8.942;2023-04-09T05:34:57;27.55;;;20.33;;
69030;SDS011;56083;48.774;8.942;2023-04-09T05:37:24;34.10;;;21.42;;
69030;SDS011;56083;48.774;8.942;2023-04-09T05:39:50;30.00;;;20.40;;
69030;SDS011;56083;48.774;8.942;2023-04-09T05:42:15;31.63;;;20.13;;
69030;SDS011;56083;48.774;8.942;2023-04-09T05:47:15;31.45;;;20.98;;
69030;SDS011;56083;48.774;8.942;2023-04-09T05:49:41;29.38;;;20.00;;
69030;SDS011;56083;48.774;8.942;2023-04-09T05:52:07;28.33;;;20.13;;
69030;SDS011;56083;48.774;8.942;2023-04-09T05:54:34;29.17;;;20.30;;
69030;SDS011;56083;48.774;8.942;2023-04-09T05:57:01;27.50;;;19.08;;
69030;SDS011;56083;48.774;8.942;2023-04-09T05:59:27;26.50;;;18.55;;
69030;SDS011;56083;48.774;8.942;2023-04-09T06:01:53;27.15;;;18.38;;
69030;SDS011;56083;48.774;8.942;2023-04-09T06:04:18;25.95;;;19.02;;
69030;SDS011;56083;48.774;8.942;2023-04-09T06:06:44;29.27;;;19.05;;
69030;SDS011;56083;48.774;8.942;2023-04-09T06:09:11;25.73;;;18.42;;
69030;SDS011;56083;48.774;8.942;2023-04-09T06:11:38;27.25;;;18.92;;
69030;SDS011;56083;48.774;8.942;2023-04-09T06:14:04;33.55;;;19.42;;
69030;SDS011;56083;48.774;8.942;2023-04-09T06:16:32;31.38;;;18.70;;
69030;SDS011;56083;48.774;8.942;2023-04-09T06:18:57;27.02;;;17.67;;
69030;SDS011;56083;48.774;8.942;2023-04-09T06:21:23;24.70;;;16.88;;
69030;SDS011;56083;48.774;8.942;2023-04-09T06:23:50;22.88;;;16.75;;
69030;SDS011;56083;48.774;8.942;2023-04-09T06:26:21;22.98;;;16.67;;
69030;SDS011;56083;48.774;8.942;2023-04-09T06:28:47;23.35;;;15.23;;
69030;SDS011;56083;48.774;8.942;2023-04-09T06:31:12;19.67;;;14.13;;
69030;SDS011;56083;48.774;8.942;2023-04-09T06:33:38;18.75;;;13.20;;
69030;SDS011;56083;48.774;8.942;2023-04-09T06:36:04;28.73;;;14.15;;
69030;SDS011;56083;48.774;8.942;2023-04-09T06:38:30;15.80;;;12.40;;
69030;SDS011;56083;48.774;8.942;2023-04-09T06:40:56;18.52;;;12.90;;
69030;SDS011;56083;48.774;8.942;2023-04-09T06:43:21;20.52;;;12.82;;
69030;SDS011;56083;48.774;8.942;2023-04-09T06:45:47;20.10;;;11.00;;
69030;SDS011;56083;48.774;8.942;2023-04-09T06:48:13;14.35;;;11.25;;
69030;SDS011;56083;48.774;8.942;2023-04-09T06:50:38;16.17;;;11.70;;
69030;SDS011;56083;48.774;8.942;2023-04-09T06:53:05;15.25;;;11.77;;
69030;SDS011;56083;48.774;8.942;2023-04-09T06:55:31;15.18;;;11.50;;
69030;SDS011;56083;48.774;8.942;2023-04-09T06:57:58;15.60;;;11.68;;
69030;SDS011;56083;48.774;8.942;2023-04-09T07:00:36;15.73;;;11.13;;
69030;SDS011;56083;48.774;8.942;2023-04-09T07:03:18;12.13;;;10.48;;
69030;SDS011;56083;48.774;8.942;2023-04-09T07:08:13;13.32;;;10.52;;
69030;SDS011;56083;48.774;8.942;2023-04-09T07:11:03;13.57;;;9.70;;
69030;SDS011;56083;48.774;8.942;2023-04-09T07:13:32;11.63;;;9.40;;
69030;SDS011;56083;48.774;8.942;2023-04-09T07:16:36;14.37;;;10.87;;
69030;SDS011;56083;48.774;8.942;2023-04-09T07:19:02;11.25;;;9.25;;
69030;SDS011;56083;48.774;8.942;2023-04-09T07:21:35;12.93;;;10.27;;
69030;SDS011;56083;48.774;8.942;2023-04-09T07:24:04;14.43;;;9.88;;
69030;SDS011;56083;48.774;8.942;2023-04-09T07:26:33;12.02;;;10.25;;
69030;SDS011;56083;48.774;8.942;2023-04-09T07:29:02;12.05;;;9.50;;
69030;SDS011;56083;48.774;8.942;2023-04-09T07:31:28;10.77;;;9.25;;
69030;SDS011;56083;48.774;8.942;2023-04-09T07:33:54;12.50;;;10.05;;
69030;SDS011;56083;48.774;8.942;2023-04-09T07:36:24;11.65;;;9.55;;
69030;SDS011;56083;48.774;8.942;2023-04-09T07:38:53;10.68;;;9.27;;
69030;SDS011;56083;48.774;8.942;2023-04-09T07:44:09;11.48;;;9.48;;
69030;SDS011;56083;48.774;8.942;2023-04-09T07:46:37;11.55;;;9.25;;
69030;SDS011;56083;48.774;8.942;2023-04-09T07:49:03;11.60;;;9.82;;
69030;SDS011;56083;48.774;8.942;2023-04-09T07:51:30;10.95;;;8.05;;
69030;SDS011;56083;48.774;8.942;2023-04-09T07:53:56;10.68;;;8.70;;
69030;SDS011;56083;48.774;8.942;2023-04-09T07:56:21;8.45;;;6.88;;
69030;SDS011;56083;48.774;8.942;2023-04-09T07:58:48;9.82;;;8.15;;
69030;SDS011;56083;48.774;8.942;2023-04-09T08:01:14;9.43;;;7.47;;
69030;SDS011;56083;48.774;8.942;2023-04-09T08:03:42;7.88;;;7.07;;
69030;SDS011;56083;48.774;8.942;2023-04-09T08:06:08;8.80;;;7.47;;
69030;SDS011;56083;48.774;8.942;2023-04-09T08:08:34;8.38;;;6.85;;
69030;SDS011;56083;48.774;8.942;2023-04-09T08:11:00;7.43;;;5.97;;
69030;SDS011;56083;48.774;8.942;2023-04-09T08:13:26;8.05;;;6.00;;
69030;SDS011;56083;48.774;8.942;2023-04-09T08:15:52;7.95;;;6.35;;
69030;SDS011;56083;48.774;8.942;2023-04-09T08:18:26;7.85;;;6.78;;
69030;SDS011;56083;48.774;8.942;2023-04-09T08:21:02;6.40;;;5.40;;
69030;SDS011;56083;48.774;8.942;2023-04-09T08:23:42;5.88;;;4.63;;
69030;SDS011;56083;48.774;8.942;2023-04-09T08:26:10;5.28;;;4.40;;
69030;SDS011;56083;48.774;8.942;2023-04-09T08:28:39;6.45;;;5.20;;
69030;SDS011;56083;48.774;8.942;2023-04-09T08:31:16;8.27;;;7.05;;
69030;SDS011;56083;48.774;8.942;2023-04-09T08:33:44;11.60;;;8.10;;
69030;SDS011;56083;48.774;8.942;2023-04-09T08:36:13;10.55;;;8.25;;
69030;SDS011;56083;48.774;8.942;2023-04-09T08:38:40;9.60;;;8.23;;
69030;SDS011;56083;48.774;8.942;2023-04-09T08:41:06;8.32;;;7.05;;
69030;SDS011;56083;48.774;8.942;2023-04-09T08:43:32;9.63;;;7.32;;
69030;SDS011;56083;48.774;8.942;2023-04-09T08:46:00;9.35;;;7.57;;
69030;SDS011;56083;48.774;8.942;2023-04-09T08:48:30;10.05;;;6.90;;
69030;SDS011;56083;48.774;8.942;2023-04-09T08:50:59;7.25;;;5.70;;
69030;SDS011;56083;48.774;8.942;2023-04-09T08:53:25;5.07;;;4.25;;
69030;SDS011;56083;48.774;8.942;2023-04-09T08:55:51;2.40;;;2.17;;
69030;SDS011;56083;48.774;8.942;2023-04-09T08:58:17;4.47;;;3.65;;
69030;SDS011;56083;48.774;8.942;2023-04-09T09:00:43;7.25;;;4.80;;
69030;SDS011;56083;48.774;8.942;2023-04-09T09:03:10;5.95;;;5.00;;
69030;SDS011;56083;48.774;8.942;2023-04-09T09:05:44;9.43;;;5.32;;
69030;SDS011;56083;48.774;8.942;2023-04-09T09:08:11;4.57;;;3.97;;
69030;SDS011;56083;48.774;8.942;2023-04-09T09:10:49;6.85;;;4.57;;
69030;SDS011;56083;48.774;8.942;2023-04-09T09:13:20;6.05;;;4.45;;
69030;SDS011;56083;48.774;8.942;2023-04-09T09:15:47;5.18;;;3.95;;
69030;SDS011;56083;48.774;8.942;2023-04-09T09:18:17;4.63;;;4.20;;
69030;SDS011;56083;48.774;8.942;2023-04-09T09:23:40;6.53;;;4.28;;
69030;SDS011;56083;48.774;8.942;2023-04-09T09:26:10;5.70;;;4.38;;
69030;SDS011;56083;48.774;8.942;2023-04-09T09:28:46;4.13;;;3.63;;
69030;SDS011;56083;48.774;8.942;2023-04-09T09:31:13;3.75;;;3.30;;
69030;SDS011;56083;48.774;8.942;2023-04-09T09:33:40;4.93;;;4.05;;
69030;SDS011;56083;48.774;8.942;2023-04-09T09:36:06;5.97;;;4.88;;
69030;SDS011;56083;48.774;8.942;2023-04-09T09:38:56;3.15;;;2.85;;
69030;SDS011;56083;48.774;8.942;2023-04-09T09:41:27;2.35;;;2.10;;
69030;SDS011;56083;48.774;8.942;2023-04-09T09:43:54;2.50;;;2.30;;
69030;SDS011;56083;48.774;8.942;2023-04-09T09:46:21;2.78;;;2.35;;
69030;SDS011;56083;48.774;8.942;2023-04-09T09:48:50;4.68;;;2.60;;
69030;SDS011;56083;48.774;8.942;2023-04-09T09:51:16;5.55;;;3.55;;
69030;SDS011;56083;48.774;8.942;2023-04-09T09:53:46;2.00;;;1.40;;
69030;SDS011;56083;48.774;8.942;2023-04-09T09:56:17;2.17;;;1.45;;
69030;SDS011;56083;48.774;8.942;2023-04-09T10:03:59;1.42;;;1.27;;
69030;SDS011;56083;48.774;8.942;2023-04-09T10:06:34;1.52;;;1.30;;
69030;SDS011;56083;48.774;8.942;2023-04-09T10:09:02;2.33;;;1.92;;
69030;SDS011;56083;48.774;8.942;2023-04-09T10:11:31;2.55;;;2.25;;
69030;SDS011;56083;48.774;8.942;2023-04-09T10:13:59;1.90;;;1.55;;
69030;SDS011;56083;48.774;8.942;2023-04-09T10:16:26;1.92;;;1.70;;
69030;SDS011;56083;48.774;8.942;2023-04-09T10:18:55;1.70;;;1.60;;
69030;SDS011;56083;48.774;8.942;2023-04-09T10:21:57;2.83;;;2.40;;
69030;SDS011;56083;48.774;8.942;2023-04-09T10:24:18;3.22;;;2.25;;
69030;SDS011;56083;48.774;8.942;2023-04-09T10:26:44;5.25;;;2.90;;
69030;SDS011;56083;48.774;8.942;2023-04-09T10:29:13;3.08;;;2.78;;
69030;SDS011;56083;48.774;8.942;2023-04-09T10:31:50;5.25;;;3.30;;
69030;SDS011;56083;48.774;8.942;2023-04-09T10:34:17;5.35;;;3.97;;
69030;SDS011;56083;48.774;8.942;2023-04-09T10:36:48;5.57;;;4.18;;
69030;SDS011;56083;48.774;8.942;2023-04-09T10:39:19;5.55;;;4.00;;
69030;SDS011;56083;48.774;8.942;2023-04-09T10:41:49;5.90;;;4.43;;
69030;SDS011;56083;48.774;8.942;2023-04-09T10:44:21;5.70;;;4.40;;
69030;SDS011;56083;48.774;8.942;2023-04-09T10:46:51;5.07;;;4.00;;
69030;SDS011;56083;48.774;8.942;2023-04-09T10:49:20;6.47;;;4.15;;
69030;SDS011;56083;48.774;8.942;2023-04-09T10:59:33;3.45;;;2.72;;
69030;SDS011;56083;48.774;8.942;2023-04-09T11:02:00;3.55;;;2.60;;
69030;SDS011;56083;48.774;8.942;2023-04-09T11:07:16;4.07;;;3.33;;
69030;SDS011;56083;48.774;8.942;2023-04-09T11:09:43;4.35;;;3.95;;
69030;SDS011;56083;48.774;8.942;2023-04-09T11:12:10;5.07;;;3.80;;
69030;SDS011;56083;48.774;8.942;2023-04-09T11:14:39;5.63;;;4.50;;
69030;SDS011;56083;48.774;8.942;2023-04-09T11:17:04;6.15;;;4.32;;
69030;SDS011;56083;48.774;8.942;2023-04-09T11:19:34;8.02;;;5.07;;
69030;SDS011;56083;48.774;8.942;2023-04-09T11:22:02;6.22;;;4.72;;
69030;SDS011;56083;48.774;8.942;2023-04-09T11:24:43;6.32;;;4.85;;
69030;SDS011;56083;48.774;8.942;2023-04-09T11:27:11;5.40;;;4.63;;
69030;SDS011;56083;48.774;8.942;2023-04-09T11:29:37;5.97;;;4.47;;
69030;SDS011;56083;48.774;8.942;2023-04-09T11:32:03;6.40;;;4.72;;
69030;SDS011;56083;48.774;8.942;2023-04-09T11:34:31;6.63;;;5.13;;
69030;SDS011;56083;48.774;8.942;2023-04-09T11:36:56;6.50;;;5.25;;
69030;SDS011;56083;48.774;8.942;2023-04-09T11:39:24;6.13;;;4.80;;
69030;SDS011;56083;48.774;8.942;2023-04-09T11:41:50;5.70;;;4.43;;
69030;SDS011;56083;48.774;8.942;2023-04-09T11:44:16;4.25;;;3.83;;
69030;SDS011;56083;48.774;8.942;2023-04-09T11:46:42;5.28;;;3.92;;
69030;SDS011;56083;48.774;8.942;2023-04-09T11:49:08;5.50;;;3.63;;
69030;SDS011;56083;48.774;8.942;2023-04-09T11:51:34;4.90;;;4.03;;
69030;SDS011;56083;48.774;8.942;2023-04-09T11:54:01;5.05;;;4.13;;
69030;SDS011;56083;48.774;8.942;2023-04-09T11:56:30;4.75;;;3.92;;
69030;SDS011;56083;48.774;8.942;2023-04-09T11:58:57;5.25;;;4.05;;
69030;SDS011;56083;48.774;8.942;2023-04-09T12:01:23;4.95;;;4.15;;
69030;SDS011;56083;48.774;8.942;2023-04-09T12:03:52;5.03;;;4.30;;
69030;SDS011;56083;48.774;8.942;2023-04-09T12:06:21;7.15;;;5.10;;
69030;SDS011;56083;48.774;8.942;2023-04-09T12:08:47;5.75;;;4.63;;
69030;SDS011;56083;48.774;8.942;2023-04-09T12:11:25;6.00;;;4.60;;
69030;SDS011;56083;48.774;8.942;2023-04-09T12:13:59;5.03;;;4.20;;
69030;SDS011;56083;48.774;8.942;2023-04-09T12:16:31;5.07;;;4.30;;
69030;SDS011;56083;48.774;8.942;2023-04-09T12:19:06;5.22;;;4.00;;
69030;SDS011;56083;48.774;8.942;2023-04-09T12:21:48;5.33;;;4.23;;
69030;SDS011;56083;48.774;8.942;2023-04-09T12:24:20;5.32;;;3.72;;
69030;SDS011;56083;48.774;8.942;2023-04-09T12:26:48;5.78;;;4.43;;
69030;SDS011;56083;48.774;8.942;2023-04-09T12:29:18;6.07;;;4.93;;
69030;SDS011;56083;48.774;8.942;2023-04-09T12:31:45;5.68;;;4.95;;
69030;SDS011;56083;48.774;8.942;2023-04-09T12:34:12;5.20;;;4.60;;
69030;SDS011;56083;48.774;8.942;2023-04-09T12:36:38;4.90;;;4.40;;
69030;SDS011;56083;48.774;8.942;2023-04-09T12:39:05;5.72;;;4.60;;
69030;SDS011;56083;48.774;8.942;2023-04-09T12:41:31;5.32;;;4.68;;
69030;SDS011;56083;48.774;8.942;2023-04-09T12:43:57;5.63;;;4.75;;
69030;SDS011;56083;48.774;8.942;2023-04-09T12:46:22;5.60;;;4.28;;
69030;SDS011;56083;48.774;8.942;2023-04-09T12:48:48;4.82;;;4.30;;
69030;SDS011;56083;48.774;8.942;2023-04-09T12:51:14;5.55;;;4.20;;
69030;SDS011;56083;48.774;8.942;2023-04-09T12:53:40;4.95;;;4.20;;
69030;SDS011;56083;48.774;8.942;2023-04-09T12:56:06;4.97;;;4.38;;
69030;SDS011;56083;48.774;8.942;2023-04-09T12:58:32;4.40;;;3.70;;
69030;SDS011;56083;48.774;8.942;2023-04-09T13:00:57;4.85;;;4.20;;
69030;SDS011;56083;48.774;8.942;2023-04-09T13:03:23;5.07;;;4.20;;
69030;SDS011;56083;48.774;8.942;2023-04-09T13:05:49;4.80;;;3.88;;
69030;SDS011;56083;48.774;8.942;2023-04-09T13:08:15;4.68;;;3.55;;
69030;SDS011;56083;48.774;8.942;2023-04-09T13:10:41;6.80;;;4.30;;
69030;SDS011;56083;48.774;8.942;2023-04-09T13:13:07;4.30;;;3.88;;
69030;SDS011;56083;48.774;8.942;2023-04-09T13:15:39;4.45;;;3.85;;
69030;SDS011;56083;48.774;8.942;2023-04-09T13:18:09;5.32;;;3.60;;
69030;SDS011;56083;48.774;8.942;2023-04-09T13:20:35;4.82;;;3.58;;
69030;SDS011;56083;48.774;8.942;2023-04-09T13:23:01;4.47;;;3.75;;
69030;SDS011;56083;48.774;8.942;2023-04-09T13:25:27;4.53;;;4.13;;
69030;SDS011;56083;48.774;8.942;2023-04-09T13:27:52;4.05;;;3.65;;
69030;SDS011;56083;48.774;8.942;2023-04-09T13:30:18;6.55;;;4.85;;
69030;SDS011;56083;48.774;8.942;2023-04-09T13:32:45;15.23;;;3.72;;
69030;SDS011;56083;48.774;8.942;2023-04-09T13:35:11;6.22;;;4.22;;
69030;SDS011;56083;48.774;8.942;2023-04-09T13:37:44;4.97;;;4.47;;
69030;SDS011;56083;48.774;8.942;2023-04-09T13:40:12;6.95;;;4.70;;
69030;SDS011;56083;48.774;8.942;2023-04-09T13:42:42;5.63;;;4.28;;
69030;SDS011;56083;48.774;8.942;2023-04-09T13:45:08;5.60;;;4.93;;
69030;SDS011;56083;48.774;8.942;2023-04-09T13:47:36;7.03;;;4.25;;
69030;SDS011;56083;48.774;8.942;2023-04-09T13:50:05;4.97;;;4.22;;
69030;SDS011;56083;48.774;8.942;2023-04-09T13:52:34;4.90;;;4.22;;
69030;SDS011;56083;48.774;8.942;2023-04-09T13:55:02;4.95;;;4.03;;
69030;SDS011;56083;48.774;8.942;2023-04-09T13:57:28;4.43;;;4.03;;
69030;SDS011;56083;48.774;8.942;2023-04-09T13:59:54;4.18;;;3.25;;
69030;SDS011;56083;48.774;8.942;2023-04-09T14:02:20;4.68;;;4.03;;
69030;SDS011;56083;48.774;8.942;2023-04-09T14:04:45;5.53;;;3.95;;
69030;SDS011;56083;48.774;8.942;2023-04-09T14:07:11;5.70;;;3.78;;
69030;SDS011;56083;48.774;8.942;2023-04-09T14:09:36;4.88;;;3.90;;
69030;SDS011;56083;48.774;8.942;2023-04-09T14:12:02;4.90;;;4.20;;
69030;SDS011;56083;48.774;8.942;2023-04-09T14:14:28;5.05;;;4.40;;
69030;SDS011;56083;48.774;8.942;2023-04-09T14:19:56;5.05;;;3.95;;
69030;SDS011;56083;48.774;8.942;2023-04-09T14:22:23;5.78;;;4.70;;
69030;SDS011;56083;48.774;8.942;2023-04-09T14:24:49;4.13;;;3.70;;
69030;SDS011;56083;48.774;8.942;2023-04-09T14:27:15;5.75;;;4.10;;
69030;SDS011;56083;48.774;8.942;2023-04-09T14:29:41;6.22;;;4.35;;
69030;SDS011;56083;48.774;8.942;2023-04-09T14:32:07;5.20;;;4.25;;
69030;SDS011;56083;48.774;8.942;2023-04-09T14:34:32;5.18;;;4.30;;
69030;SDS011;56083;48.774;8.942;2023-04-09T14:36:58;5.72;;;4.15;;
69030;SDS011;56083;48.774;8.942;2023-04-09T14:39:23;6.05;;;4.50;;
69030;SDS011;56083;48.774;8.942;2023-04-09T14:41:49;5.47;;;4.20;;
69030;SDS011;56083;48.774;8.942;2023-04-09T14:44:15;6.63;;;3.80;;
69030;SDS011;56083;48.774;8.942;2023-04-09T14:46:42;5.07;;;3.95;;
69030;SDS011;56083;48.774;8.942;2023-04-09T14:49:08;6.85;;;4.70;;
69030;SDS011;56083;48.774;8.942;2023-04-09T14:51:34;4.80;;;3.80;;
69030;SDS011;56083;48.774;8.942;2023-04-09T14:54:01;5.25;;;3.72;;
69030;SDS011;56083;48.774;8.942;2023-04-09T14:56:26;4.88;;;4.10;;
69030;SDS011;56083;48.774;8.942;2023-04-09T14:58:52;5.82;;;4.18;;
69030;SDS011;56083;48.774;8.942;2023-04-09T15:01:18;5.45;;;4.43;;
69030;SDS011;56083;48.774;8.942;2023-04-09T15:03:50;4.22;;;3.60;;
69030;SDS011;56083;48.774;8.942;2023-04-09T15:06:19;4.90;;;3.78;;
69030;SDS011;56083;48.774;8.942;2023-04-09T15:08:52;4.63;;;3.85;;
69030;SDS011;56083;48.774;8.942;2023-04-09T15:11:24;5.70;;;4.15;;
69030;SDS011;56083;48.774;8.942;2023-04-09T15:13:50;5.40;;;4.28;;